Time;durP1;ratioP1;P1;durP2;ratioP2;P2;SDS_P1;SDS_P2;PMS_P1;PMS_P2;Temp;Humidity;BMP_temperature;BMP_pressure;BME280_temperature;BME280_humidity;BME280_pressure;Samples;Min_cycle;Max_cycle;Signal;HPM_P1;HPM_P2
2021/04/16 00:02:47;;;;;;;;;26.25;26.25;;;;;;;;8748931;40;10670;-55
2021/04/16 00:08:49;;;;;;;;;27.50;24.25;;;;;;;;8749428;40;10577;-56
2021/04/16 00:14:51;;;;;;;;;28.75;27.50;;;;;;;;8749545;40;10554;-56
2021/04/16 00:20:53;;;;;;;;;31.75;28.25;;;;;;;;8749203;40;10521;-56
2021/04/16 00:26:54;;;;;;;;;37.25;27.25;;;;;;;;8749335;40;10550;-55
2021/04/16 00:32:56;;;;;;;;;30.25;30.25;;;;;;;;8749667;40;10533;-55
2021/04/16 00:38:58;;;;;;;;;32.75;30.25;;;;;;;;8749123;40;10537;-57
2021/04/16 00:44:59;;;;;;;;;26.75;25.00;;;;;;;;8748532;40;10659;-56
2021/04/16 00:51:05;;;;;;;;;37.00;32.50;;;;;;;;8749006;40;10555;-55
2021/04/16 00:57:12;;;;;;;;;30.75;24.50;;;;;;;;8750917;40;10720;-53
2021/04/16 01:03:14;;;;;;;;;28.50;26.50;;;;;;;;8748582;40;10479;-56
2021/04/16 01:09:16;;;;;;;;;32.50;31.00;;;;;;;;8748848;40;11180;-56
2021/04/16 01:15:31;;;;;;;;;33.75;31.00;;;;;;;;8748818;40;11178;-56
2021/04/16 01:21:40;;;;;;;;;32.25;27.25;;;;;;;;8748879;40;10694;-54
2021/04/16 01:27:41;;;;;;;;;33.50;28.75;;;;;;;;8747759;40;10525;-56
2021/04/16 01:33:45;;;;;;;;;32.25;26.75;;;;;;;;8748656;40;10504;-55
2021/04/16 01:39:47;;;;;;;;;31.00;27.75;;;;;;;;8748277;40;10482;-57
2021/04/16 01:45:59;;;;;;;;;27.75;24.75;;;;;;;;8748973;40;10635;-54
2021/04/16 01:52:01;;;;;;;;;27.00;25.75;;;;;;;;8748662;40;10739;-58
2021/04/16 01:58:02;;;;;;;;;25.25;25.25;;;;;;;;8751657;40;10570;-57
2021/04/16 02:04:04;;;;;;;;;29.75;28.50;;;;;;;;8752223;40;10506;-54
2021/04/16 02:10:08;;;;;;;;;34.25;29.75;;;;;;;;8752800;40;10553;-55
2021/04/16 02:16:10;;;;;;;;;25.00;24.00;;;;;;;;8751455;40;10497;-54
2021/04/16 02:22:14;;;;;;;;;25.25;24.25;;;;;;;;8749558;40;10653;-55
2021/04/16 02:28:16;;;;;;;;;28.50;25.00;;;;;;;;8748877;40;11033;-57
2021/04/16 02:34:20;;;;;;;;;33.50;29.50;;;;;;;;8751703;40;10528;-54
2021/04/16 02:40:24;;;;;;;;;33.25;29.25;;;;;;;;8751597;40;10573;-56
2021/04/16 02:46:26;;;;;;;;;29.00;24.75;;;;;;;;8750978;40;10628;-56
2021/04/16 02:52:27;;;;;;;;;26.50;24.25;;;;;;;;8750209;40;10577;-56
2021/04/16 02:58:29;;;;;;;;;36.25;30.25;;;;;;;;8750966;40;11200;-56
2021/04/16 03:04:31;;;;;;;;;34.50;30.25;;;;;;;;8750480;40;11110;-55
2021/04/16 03:10:35;;;;;;;;;31.00;29.75;;;;;;;;8757465;40;10593;-56
2021/04/16 03:16:37;;;;;;;;;36.00;29.00;;;;;;;;8750585;40;10729;-56
2021/04/16 03:22:38;;;;;;;;;37.75;31.00;;;;;;;;8747980;40;10640;-56
2021/04/16 03:28:40;;;;;;;;;35.25;30.25;;;;;;;;8750244;40;11448;-56
2021/04/16 03:34:41;;;;;;;;;37.25;31.00;;;;;;;;8750785;40;10761;-57
2021/04/16 03:40:43;;;;;;;;;32.25;32.00;;;;;;;;8750207;40;10619;-57
2021/04/16 03:46:45;;;;;;;;;34.00;30.00;;;;;;;;8749489;40;10534;-56
2021/04/16 03:52:47;;;;;;;;;39.00;35.00;;;;;;;;8750677;40;11622;-55
2021/04/16 03:58:49;;;;;;;;;36.25;32.00;;;;;;;;8749489;40;10633;-57
2021/04/16 04:04:51;;;;;;;;;33.50;32.00;;;;;;;;9813808;23;10766;-57
2021/04/16 04:10:52;;;;;;;;;36.25;35.75;;;;;;;;8824028;40;10485;-55
2021/04/16 04:16:56;;;;;;;;;33.25;31.25;;;;;;;;8824501;40;10604;-56
2021/04/16 04:22:59;;;;;;;;;30.50;28.00;;;;;;;;8811789;40;10490;-55
2021/04/16 04:29:00;;;;;;;;;34.00;28.00;;;;;;;;8800868;40;11048;-56
2021/04/16 04:35:02;;;;;;;;;28.00;26.50;;;;;;;;8800551;40;10634;-57
2021/04/16 04:41:03;;;;;;;;;30.75;26.75;;;;;;;;8799671;40;11022;-57
2021/04/16 04:47:08;;;;;;;;;34.00;30.50;;;;;;;;8800000;40;10513;-56
2021/04/16 04:53:09;;;;;;;;;29.25;28.25;;;;;;;;8799110;40;10715;-58
2021/04/16 04:59:11;;;;;;;;;28.75;28.00;;;;;;;;8801156;40;10570;-57
2021/04/16 05:05:13;;;;;;;;;35.25;27.75;;;;;;;;8799246;40;10623;-58
2021/04/16 05:11:15;;;;;;;;;25.25;22.75;;;;;;;;8799566;40;10561;-58
2021/04/16 05:17:17;;;;;;;;;32.25;24.00;;;;;;;;8799685;40;10468;-55
2021/04/16 05:23:18;;;;;;;;;34.50;29.75;;;;;;;;8798337;40;10548;-59
2021/04/16 05:29:20;;;;;;;;;35.50;29.50;;;;;;;;8802638;40;10591;-58
2021/04/16 05:35:21;;;;;;;;;34.50;33.25;;;;;;;;8801964;40;11143;-59
2021/04/16 05:41:23;;;;;;;;;42.00;34.50;;;;;;;;8802372;40;10510;-57
2021/04/16 05:47:24;;;;;;;;;35.25;30.25;;;;;;;;8802860;40;11106;-57
2021/04/16 05:53:26;;;;;;;;;27.75;25.50;;;;;;;;8802938;40;10617;-58
2021/04/16 05:59:28;;;;;;;;;26.25;26.00;;;;;;;;8802574;40;10733;-56
2021/04/16 06:05:29;;;;;;;;;33.50;27.75;;;;;;;;8825445;40;10770;-57
2021/04/16 06:11:31;;;;;;;;;26.50;21.75;;;;;;;;8819803;40;10412;-57
2021/04/16 06:17:33;;;;;;;;;35.25;33.00;;;;;;;;8813951;40;10496;-56
2021/04/16 06:23:35;;;;;;;;;30.50;27.75;;;;;;;;8801635;40;10963;-58
2021/04/16 06:29:37;;;;;;;;;30.25;26.50;;;;;;;;8803378;40;10524;-58
2021/04/16 06:35:41;;;;;;;;;34.00;28.75;;;;;;;;8801202;40;10560;-60
2021/04/16 06:41:45;;;;;;;;;33.00;29.00;;;;;;;;8801763;40;10585;-57
2021/04/16 06:47:58;;;;;;;;;27.50;26.75;;;;;;;;8802144;40;10536;-57
2021/04/16 06:54:05;;;;;;;;;31.25;25.25;;;;;;;;8805098;40;10539;-58
2021/04/16 07:00:18;;;;;;;;;29.00;28.50;;;;;;;;8802434;40;10584;-53
2021/04/16 07:06:26;;;;;;;;;54.50;45.75;;;;;;;;8800298;40;10519;-55
2021/04/16 07:12:29;;;;;;;;;23.00;23.00;;;;;;;;8806348;40;10527;-56
2021/04/16 07:18:37;;;;;;;;;33.00;32.50;;;;;;;;8801260;40;11115;-55
2021/04/16 07:24:38;;;;;;;;;25.50;23.75;;;;;;;;8813551;40;10507;-55
2021/04/16 07:30:46;;;;;;;;;24.75;23.00;;;;;;;;8824479;40;11152;-56
2021/04/16 07:36:48;;;;;;;;;26.75;26.00;;;;;;;;8815856;40;10585;-57
2021/04/16 07:42:50;;;;;;;;;22.50;17.50;;;;;;;;8817647;40;10914;-55
2021/04/16 07:49:15;;;;;;;;;23.50;21.00;;;;;;;;8807711;40;10725;-55
2021/04/16 07:55:28;;;;;;;;;25.00;23.25;;;;;;;;8810331;40;10611;-58
2021/04/16 08:01:35;;;;;;;;;24.50;24.50;;;;;;;;8821032;40;10481;-57
2021/04/16 08:07:37;;;;;;;;;28.50;26.50;;;;;;;;8800209;40;10755;-58
2021/04/16 08:13:42;;;;;;;;;23.25;23.25;;;;;;;;8811331;40;11318;-58
2021/04/16 08:19:47;;;;;;;;;27.50;25.25;;;;;;;;8824642;40;10819;-54
2021/04/16 08:25:55;;;;;;;;;25.50;23.50;;;;;;;;8821820;40;11134;-58
2021/04/16 08:32:09;;;;;;;;;19.00;17.75;;;;;;;;8815045;40;10531;-58
2021/04/16 08:38:16;;;;;;;;;22.50;20.50;;;;;;;;8795524;40;10738;-58
2021/04/16 08:44:21;;;;;;;;;20.75;18.25;;;;;;;;8799667;40;10578;-57
2021/04/16 08:50:26;;;;;;;;;18.25;15.50;;;;;;;;8797825;40;11744;-57
2021/04/16 08:56:34;;;;;;;;;16.75;16.75;;;;;;;;8799918;40;10985;-56
2021/04/16 09:02:44;;;;;;;;;19.00;16.50;;;;;;;;8820740;40;10557;-58
2021/04/16 09:08:47;;;;;;;;;16.00;14.75;;;;;;;;8885968;40;10600;-59
2021/04/16 09:14:51;;;;;;;;;19.50;19.50;;;;;;;;8873854;40;10502;-58
2021/04/16 09:20:53;;;;;;;;;11.75;11.50;;;;;;;;8896464;40;10408;-56
2021/04/16 09:26:57;;;;;;;;;18.25;13.75;;;;;;;;8901587;40;10325;-59
2021/04/16 09:33:24;;;;;;;;;14.50;13.50;;;;;;;;8899582;40;10470;-58
2021/04/16 09:39:37;;;;;;;;;17.50;17.50;;;;;;;;8901337;40;11093;-60
2021/04/16 09:45:47;;;;;;;;;14.25;13.25;;;;;;;;8902030;40;10614;-59
2021/04/16 09:51:50;;;;;;;;;13.75;13.25;;;;;;;;8900904;40;10449;-57
2021/04/16 09:57:52;;;;;;;;;15.75;14.00;;;;;;;;8901793;40;10539;-58
2021/04/16 10:04:01;;;;;;;;;13.33;11.00;;;;;;;;8891902;40;9912;-58
2021/04/16 10:10:13;;;;;;;;;14.50;11.75;;;;;;;;8901321;40;10535;-61
2021/04/16 10:16:22;;;;;;;;;13.25;12.50;;;;;;;;8875376;40;10571;-57
2021/04/16 10:22:27;;;;;;;;;13.00;13.00;;;;;;;;8874315;40;10656;-59
2021/04/16 12:42:30;;;;;;;;;11.33;9.67;;;;;;;;8874396;40;11170;-56
2021/04/16 12:48:32;;;;;;;;;9.33;9.33;;;;;;;;8873143;40;9940;-59
2021/04/16 12:54:40;;;;;;;;;7.33;6.67;;;;;;;;8873315;40;9800;-59
2021/04/16 13:00:44;;;;;;;;;11.00;10.00;;;;;;;;8874217;40;10560;-58
2021/04/16 13:06:47;;;;;;;;;6.67;6.67;;;;;;;;8893962;40;9949;-57
2021/04/16 13:12:49;;;;;;;;;9.67;9.00;;;;;;;;8889809;40;9923;-54
2021/04/16 13:18:56;;;;;;;;;7.00;5.67;;;;;;;;8869072;40;9936;-60
2021/04/16 13:24:58;;;;;;;;;8.00;8.00;;;;;;;;8870956;40;9975;-59
2021/04/16 13:31:00;;;;;;;;;8.67;8.67;;;;;;;;8871073;40;9896;-57
2021/04/16 13:37:01;;;;;;;;;13.00;11.00;;;;;;;;8872323;40;9911;-56
2021/04/16 13:43:04;;;;;;;;;11.33;10.67;;;;;;;;8874542;40;9924;-58
2021/04/16 13:49:14;;;;;;;;;7.33;7.00;;;;;;;;8873729;40;9908;-57
2021/04/16 13:55:17;;;;;;;;;9.00;9.00;;;;;;;;8876691;40;9739;-58
2021/04/16 14:01:18;;;;;;;;;10.67;9.00;;;;;;;;8899467;40;10202;-59
2021/04/16 14:07:22;;;;;;;;;10.33;10.00;;;;;;;;8902339;40;10028;-60
2021/04/16 14:13:23;;;;;;;;;11.00;9.00;;;;;;;;8876495;40;10637;-59
2021/04/16 14:19:32;;;;;;;;;8.33;7.00;;;;;;;;8875612;40;9890;-58
2021/04/16 14:25:39;;;;;;;;;10.67;10.33;;;;;;;;8876711;40;9859;-59
2021/04/16 14:31:43;;;;;;;;;13.67;13.33;;;;;;;;8876550;40;10128;-59
2021/04/16 14:37:44;;;;;;;;;8.67;8.67;;;;;;;;8877200;40;9896;-59
2021/04/16 14:43:46;;;;;;;;;4.33;4.00;;;;;;;;8876358;40;9818;-59
2021/04/16 14:49:48;;;;;;;;;12.67;10.00;;;;;;;;8876374;40;10132;-58
2021/04/16 14:55:50;;;;;;;;;11.00;9.33;;;;;;;;8877102;40;9836;-58
2021/04/16 15:01:52;;;;;;;;;10.67;9.00;;;;;;;;8874160;40;9949;-58
2021/04/16 15:08:09;;;;;;;;;6.75;6.75;;;;;;;;8875194;40;10331;-59
2021/04/16 15:14:31;;;;;;;;;11.00;11.00;;;;;;;;8875689;40;10399;-57
2021/04/16 15:20:33;;;;;;;;;10.33;10.33;;;;;;;;8874971;40;10338;-59
2021/04/16 15:26:35;;;;;;;;;9.50;9.50;;;;;;;;8875792;40;10279;-57
2021/04/16 15:32:40;;;;;;;;;8.00;8.00;;;;;;;;8874524;40;9860;-57
2021/04/16 15:51:30;;;;;;;;;11.75;10.50;;;;;;;;8874743;40;10538;-58
2021/04/16 15:57:33;;;;;;;;;14.75;12.00;;;;;;;;8874991;40;10373;-56
2021/04/16 16:03:36;;;;;;;;;11.25;11.25;;;;;;;;8874478;40;10372;-58
2021/04/16 16:09:39;;;;;;;;;12.75;12.75;;;;;;;;8875891;40;10359;-56
2021/04/16 16:15:44;;;;;;;;;12.00;12.00;;;;;;;;8873679;40;10362;-57
2021/04/16 16:21:47;;;;;;;;;10.75;10.75;;;;;;;;8874490;40;10302;-60
2021/04/16 16:28:26;;;;;;;;;13.75;13.00;;;;;;;;8873627;40;10356;-58
2021/04/16 16:34:30;;;;;;;;;16.75;15.25;;;;;;;;8874021;40;10896;-58
2021/04/16 16:40:36;;;;;;;;;12.75;11.50;;;;;;;;8874872;40;10358;-54
2021/04/16 16:46:38;;;;;;;;;13.50;12.75;;;;;;;;8873942;40;10356;-57
2021/04/16 16:52:41;;;;;;;;;12.75;11.00;;;;;;;;8874451;40;10420;-57
2021/04/16 16:58:45;;;;;;;;;13.25;13.25;;;;;;;;8872429;40;10500;-58
2021/04/16 17:04:48;;;;;;;;;16.00;14.50;;;;;;;;8874750;40;10343;-57
2021/04/16 17:10:50;;;;;;;;;15.50;15.00;;;;;;;;8874639;40;10598;-57
2021/04/16 17:16:51;;;;;;;;;15.00;14.50;;;;;;;;8873816;40;10440;-57
2021/04/16 17:22:53;;;;;;;;;16.75;11.25;;;;;;;;8875244;40;10394;-58
2021/04/16 17:28:54;;;;;;;;;17.25;17.25;;;;;;;;8876301;40;11176;-58
2021/04/16 17:34:56;;;;;;;;;17.00;17.00;;;;;;;;8877742;40;10266;-58
2021/04/16 17:40:58;;;;;;;;;16.75;13.50;;;;;;;;8870324;40;11039;-58
2021/04/16 17:47:01;;;;;;;;;16.75;16.75;;;;;;;;8876443;40;10950;-56
2021/04/16 17:53:03;;;;;;;;;16.00;16.00;;;;;;;;8877245;40;10631;-58
2021/04/16 17:59:12;;;;;;;;;23.75;22.25;;;;;;;;8876825;40;10425;-60
2021/04/16 18:05:14;;;;;;;;;22.50;20.50;;;;;;;;8877666;40;10527;-61
2021/04/16 18:11:33;;;;;;;;;22.00;20.25;;;;;;;;8876724;40;11068;-58
2021/04/16 18:17:35;;;;;;;;;24.75;22.75;;;;;;;;8875866;40;10585;-58
2021/04/16 18:24:00;;;;;;;;;22.25;22.25;;;;;;;;8876912;40;10507;-57
2021/04/16 18:30:04;;;;;;;;;22.75;21.50;;;;;;;;8875891;40;10418;-59
2021/04/16 18:36:15;;;;;;;;;21.50;19.25;;;;;;;;8877574;40;10584;-59
2021/04/16 18:42:16;;;;;;;;;25.25;23.00;;;;;;;;8876423;40;10369;-57
2021/04/16 18:48:18;;;;;;;;;17.75;17.75;;;;;;;;8875694;40;10421;-58
2021/04/16 18:54:32;;;;;;;;;28.50;24.75;;;;;;;;8876860;40;10603;-58
2021/04/16 19:00:40;;;;;;;;;21.50;21.50;;;;;;;;8875027;40;10495;-56
2021/04/16 19:06:47;;;;;;;;;22.50;20.25;;;;;;;;8877334;40;10549;-58
2021/04/16 19:12:49;;;;;;;;;21.50;20.75;;;;;;;;8875545;40;10436;-58
2021/04/16 19:18:51;;;;;;;;;28.50;28.00;;;;;;;;8876423;40;10365;-58
2021/04/16 19:24:57;;;;;;;;;30.50;28.75;;;;;;;;8875178;40;10435;-57
2021/04/16 19:31:05;;;;;;;;;26.25;25.50;;;;;;;;8875806;40;10496;-56
2021/04/16 19:37:16;;;;;;;;;28.25;26.75;;;;;;;;8876076;40;11152;-59
2021/04/16 19:43:19;;;;;;;;;23.50;20.25;;;;;;;;8873920;40;10507;-58
2021/04/16 20:16:54;;;;;;;;;36.25;34.50;;;;;;;;8873917;40;10335;-57
2021/04/16 20:20:40;;;;;;;;;39.00;35.25;;;;;;;;8869047;40;10481;-56
2021/04/16 20:26:42;;;;;;;;;35.50;30.75;;;;;;;;8874042;40;10387;-58
2021/04/16 20:32:44;;;;;;;;;28.00;28.00;;;;;;;;8874198;40;10454;-56
2021/04/16 20:38:46;;;;;;;;;34.75;29.00;;;;;;;;8873805;40;10664;-57
2021/04/16 20:44:48;;;;;;;;;26.25;25.00;;;;;;;;8874998;40;10562;-56
2021/04/16 20:50:52;;;;;;;;;34.25;30.00;;;;;;;;8873812;40;10523;-55
2021/04/16 20:56:54;;;;;;;;;29.50;29.50;;;;;;;;8865628;40;10469;-55
2021/04/16 21:02:58;;;;;;;;;24.00;23.25;;;;;;;;8877709;40;10389;-56
2021/04/16 21:09:05;;;;;;;;;23.75;20.75;;;;;;;;8876841;40;11033;-58
2021/04/16 21:15:08;;;;;;;;;21.50;21.25;;;;;;;;8877465;40;10957;-57
2021/04/16 21:21:28;;;;;;;;;19.00;19.00;;;;;;;;8876981;40;10384;-54
2021/04/16 21:27:35;;;;;;;;;21.50;19.25;;;;;;;;8877547;40;10352;-57
2021/04/16 21:33:43;;;;;;;;;20.00;19.50;;;;;;;;8877912;40;10427;-58
2021/04/16 21:39:46;;;;;;;;;20.00;20.00;;;;;;;;8876595;40;10395;-55
2021/04/16 21:45:52;;;;;;;;;19.50;19.25;;;;;;;;8878520;40;10443;-55
2021/04/16 21:52:21;;;;;;;;;20.50;19.25;;;;;;;;8875864;40;10609;-55
2021/04/16 21:58:24;;;;;;;;;25.75;18.75;;;;;;;;8878001;40;10366;-57
2021/04/16 22:04:27;;;;;;;;;22.25;18.75;;;;;;;;8876767;40;10457;-57
2021/04/16 22:10:36;;;;;;;;;18.00;17.00;;;;;;;;8875533;40;10768;-57
2021/04/16 22:16:45;;;;;;;;;22.25;18.25;;;;;;;;8877268;40;10432;-53
2021/04/16 22:22:50;;;;;;;;;18.50;18.50;;;;;;;;8874509;40;10397;-57
2021/04/16 22:28:54;;;;;;;;;19.75;16.50;;;;;;;;8876842;40;11041;-57
2021/04/16 22:34:56;;;;;;;;;18.50;18.50;;;;;;;;8876203;40;10397;-57
2021/04/16 22:40:59;;;;;;;;;23.25;21.00;;;;;;;;8869267;40;10388;-56
2021/04/16 22:47:24;;;;;;;;;19.25;19.25;;;;;;;;8877130;40;10431;-54
2021/04/16 22:53:25;;;;;;;;;19.00;16.00;;;;;;;;8875206;40;10521;-55
2021/04/16 22:59:27;;;;;;;;;29.00;23.00;;;;;;;;8876690;40;10467;-57
2021/04/16 23:05:39;;;;;;;;;31.50;29.75;;;;;;;;8875304;40;10456;-56
2021/04/16 23:11:44;;;;;;;;;33.00;29.00;;;;;;;;8874876;40;10560;-56
2021/04/16 23:17:45;;;;;;;;;31.25;26.75;;;;;;;;8875396;40;10689;-59
2021/04/16 23:23:50;;;;;;;;;36.50;32.50;;;;;;;;8875694;40;10449;-54
2021/04/16 23:29:54;;;;;;;;;39.25;34.25;;;;;;;;8877095;40;10685;-56
2021/04/16 23:35:55;;;;;;;;;41.75;34.50;;;;;;;;8875424;40;10675;-57
2021/04/16 23:41:59;;;;;;;;;31.25;30.25;;;;;;;;8875574;40;10335;-55
2021/04/16 23:48:00;;;;;;;;;40.50;35.75;;;;;;;;8874812;40;10959;-55
2021/04/16 23:54:02;;;;;;;;;29.00;27.50;;;;;;;;8875368;40;10395;-56
